sensor_id;sensor_type;location;lat;lon;timestamp;P1;durP1;ratioP1;P2;durP2;ratioP2
5428;SDS011;2737;52.386;9.980;2023-04-01T00:02:12;3.03;;;1.20;;
5428;SDS011;2737;52.386;9.980;2023-04-01T00:04:39;3.23;;;1.50;;
5428;SDS011;2737;52.386;9.980;2023-04-01T00:07:06;6.57;;;1.90;;
5428;SDS011;2737;52.386;9.980;2023-04-01T00:09:33;4.50;;;2.00;;
5428;SDS011;2737;52.386;9.980;2023-04-01T00:12:01;7.73;;;1.97;;
5428;SDS011;2737;52.386;9.980;2023-04-01T00:14:29;7.50;;;1.90;;
5428;SDS011;2737;52.386;9.980;2023-04-01T00:16:56;3.87;;;1.57;;
5428;SDS011;2737;52.386;9.980;2023-04-01T00:19:23;5.27;;;1.53;;
5428;SDS011;2737;52.386;9.980;2023-04-01T00:21:50;7.27;;;2.00;;
5428;SDS011;2737;52.386;9.980;2023-04-01T00:24:17;2.10;;;1.33;;
5428;SDS011;2737;52.386;9.980;2023-04-01T00:26:44;3.87;;;1.40;;
5428;SDS011;2737;52.386;9.980;2023-04-01T00:29:12;7.30;;;1.70;;
5428;SDS011;2737;52.386;9.980;2023-04-01T00:31:41;2.80;;;1.33;;
5428;SDS011;2737;52.386;9.980;2023-04-01T00:34:08;8.40;;;1.90;;
5428;SDS011;2737;52.386;9.980;2023-04-01T00:36:35;3.50;;;1.70;;
5428;SDS011;2737;52.386;9.980;2023-04-01T00:39:02;2.13;;;1.57;;
5428;SDS011;2737;52.386;9.980;2023-04-01T00:41:29;9.70;;;1.70;;
5428;SDS011;2737;52.386;9.980;2023-04-01T00:46:43;3.50;;;1.63;;
5428;SDS011;2737;52.386;9.980;2023-04-01T00:49:10;6.83;;;1.87;;
5428;SDS011;2737;52.386;9.980;2023-04-01T00:51:37;6.43;;;1.60;;
5428;SDS011;2737;52.386;9.980;2023-04-01T00:54:07;8.00;;;1.37;;
5428;SDS011;2737;52.386;9.980;2023-04-01T00:56:36;5.70;;;1.50;;
5428;SDS011;2737;52.386;9.980;2023-04-01T00:59:09;2.83;;;1.27;;
5428;SDS011;2737;52.386;9.980;2023-04-01T01:01:39;2.97;;;1.10;;
5428;SDS011;2737;52.386;9.980;2023-04-01T01:04:18;2.90;;;1.50;;
5428;SDS011;2737;52.386;9.980;2023-04-01T01:06:52;4.40;;;1.23;;
5428;SDS011;2737;52.386;9.980;2023-04-01T01:09:29;3.80;;;1.30;;
5428;SDS011;2737;52.386;9.980;2023-04-01T01:12:04;3.00;;;1.63;;
5428;SDS011;2737;52.386;9.980;2023-04-01T01:14:40;3.90;;;1.13;;
5428;SDS011;2737;52.386;9.980;2023-04-01T01:17:17;2.80;;;1.10;;
5428;SDS011;2737;52.386;9.980;2023-04-01T01:20:01;4.73;;;1.40;;
5428;SDS011;2737;52.386;9.980;2023-04-01T01:22:57;6.70;;;1.53;;
5428;SDS011;2737;52.386;9.980;2023-04-01T01:25:40;4.27;;;1.20;;
5428;SDS011;2737;52.386;9.980;2023-04-01T01:28:22;3.90;;;1.23;;
5428;SDS011;2737;52.386;9.980;2023-04-01T01:31:02;4.73;;;1.30;;
5428;SDS011;2737;52.386;9.980;2023-04-01T01:33:49;3.67;;;1.30;;
5428;SDS011;2737;52.386;9.980;2023-04-01T01:36:34;1.70;;;1.10;;
5428;SDS011;2737;52.386;9.980;2023-04-01T01:39:02;3.40;;;1.10;;
5428;SDS011;2737;52.386;9.980;2023-04-01T01:41:31;2.63;;;1.37;;
5428;SDS011;2737;52.386;9.980;2023-04-01T01:44:00;4.13;;;1.67;;
5428;SDS011;2737;52.386;9.980;2023-04-01T01:46:32;7.40;;;1.27;;
5428;SDS011;2737;52.386;9.980;2023-04-01T01:48:59;4.00;;;1.07;;
5428;SDS011;2737;52.386;9.980;2023-04-01T01:51:28;5.77;;;1.40;;
5428;SDS011;2737;52.386;9.980;2023-04-01T01:53:58;1.87;;;0.93;;
5428;SDS011;2737;52.386;9.980;2023-04-01T01:56:25;1.37;;;0.87;;
5428;SDS011;2737;52.386;9.980;2023-04-01T01:58:56;0.73;;;0.70;;
5428;SDS011;2737;52.386;9.980;2023-04-01T02:01:26;5.23;;;1.10;;
5428;SDS011;2737;52.386;9.980;2023-04-01T02:03:55;0.90;;;0.80;;
5428;SDS011;2737;52.386;9.980;2023-04-01T02:06:25;2.90;;;0.97;;
5428;SDS011;2737;52.386;9.980;2023-04-01T02:08:55;2.70;;;1.00;;
5428;SDS011;2737;52.386;9.980;2023-04-01T02:11:28;3.07;;;1.10;;
5428;SDS011;2737;52.386;9.980;2023-04-01T02:13:58;1.93;;;0.73;;
5428;SDS011;2737;52.386;9.980;2023-04-01T02:16:32;2.70;;;0.97;;
5428;SDS011;2737;52.386;9.980;2023-04-01T02:19:02;1.90;;;0.77;;
5428;SDS011;2737;52.386;9.980;2023-04-01T02:21:33;1.73;;;0.70;;
5428;SDS011;2737;52.386;9.980;2023-04-01T02:24:04;2.00;;;0.83;;
5428;SDS011;2737;52.386;9.980;2023-04-01T02:26:36;3.57;;;1.10;;
5428;SDS011;2737;52.386;9.980;2023-04-01T02:29:03;1.53;;;0.80;;
5428;SDS011;2737;52.386;9.980;2023-04-01T02:31:32;2.00;;;0.90;;
5428;SDS011;2737;52.386;9.980;2023-04-01T02:34:00;2.80;;;1.00;;
5428;SDS011;2737;52.386;9.980;2023-04-01T02:36:28;4.23;;;0.90;;
5428;SDS011;2737;52.386;9.980;2023-04-01T02:38:56;2.43;;;0.90;;
5428;SDS011;2737;52.386;9.980;2023-04-01T02:41:28;1.63;;;0.90;;
5428;SDS011;2737;52.386;9.980;2023-04-01T02:43:55;2.90;;;1.00;;
5428;SDS011;2737;52.386;9.980;2023-04-01T02:46:23;2.00;;;0.90;;
5428;SDS011;2737;52.386;9.980;2023-04-01T02:48:50;1.00;;;0.67;;
5428;SDS011;2737;52.386;9.980;2023-04-01T02:51:18;2.30;;;0.90;;
5428;SDS011;2737;52.386;9.980;2023-04-01T02:53:45;3.03;;;0.80;;
5428;SDS011;2737;52.386;9.980;2023-04-01T02:56:12;1.80;;;0.70;;
5428;SDS011;2737;52.386;9.980;2023-04-01T02:58:41;2.10;;;1.00;;
5428;SDS011;2737;52.386;9.980;2023-04-01T03:01:08;3.13;;;0.80;;
5428;SDS011;2737;52.386;9.980;2023-04-01T03:03:35;3.30;;;0.90;;
5428;SDS011;2737;52.386;9.980;2023-04-01T03:06:04;1.10;;;0.70;;
5428;SDS011;2737;52.386;9.980;2023-04-01T03:08:32;4.40;;;0.90;;
5428;SDS011;2737;52.386;9.980;2023-04-01T03:10:59;2.67;;;0.93;;
5428;SDS011;2737;52.386;9.980;2023-04-01T03:13:26;2.73;;;0.93;;
5428;SDS011;2737;52.386;9.980;2023-04-01T03:15:54;2.83;;;0.90;;
5428;SDS011;2737;52.386;9.980;2023-04-01T03:18:21;3.77;;;1.40;;
5428;SDS011;2737;52.386;9.980;2023-04-01T03:20:48;4.30;;;0.97;;
5428;SDS011;2737;52.386;9.980;2023-04-01T03:23:15;1.57;;;0.90;;
5428;SDS011;2737;52.386;9.980;2023-04-01T03:25:44;0.97;;;0.67;;
5428;SDS011;2737;52.386;9.980;2023-04-01T03:28:11;3.00;;;1.00;;
5428;SDS011;2737;52.386;9.980;2023-04-01T03:30:38;6.00;;;1.10;;
5428;SDS011;2737;52.386;9.980;2023-04-01T03:33:07;5.93;;;1.20;;
5428;SDS011;2737;52.386;9.980;2023-04-01T03:35:34;3.23;;;1.00;;
5428;SDS011;2737;52.386;9.980;2023-04-01T03:38:01;2.60;;;1.43;;
5428;SDS011;2737;52.386;9.980;2023-04-01T03:40:29;3.60;;;2.20;;
5428;SDS011;2737;52.386;9.980;2023-04-01T03:42:56;4.07;;;1.30;;
5428;SDS011;2737;52.386;9.980;2023-04-01T03:45:23;8.77;;;1.40;;
5428;SDS011;2737;52.386;9.980;2023-04-01T03:47:50;2.37;;;1.20;;
5428;SDS011;2737;52.386;9.980;2023-04-01T03:50:18;1.80;;;0.90;;
5428;SDS011;2737;52.386;9.980;2023-04-01T03:52:45;2.10;;;0.97;;
5428;SDS011;2737;52.386;9.980;2023-04-01T03:55:12;5.37;;;1.37;;
5428;SDS011;2737;52.386;9.980;2023-04-01T03:57:40;1.77;;;1.00;;
5428;SDS011;2737;52.386;9.980;2023-04-01T04:00:07;2.37;;;1.00;;
5428;SDS011;2737;52.386;9.980;2023-04-01T04:02:35;1.97;;;1.20;;
5428;SDS011;2737;52.386;9.980;2023-04-01T04:05:02;1.77;;;1.10;;
5428;SDS011;2737;52.386;9.980;2023-04-01T04:07:33;4.63;;;1.00;;
5428;SDS011;2737;52.386;9.980;2023-04-01T04:10:00;5.07;;;1.07;;
5428;SDS011;2737;52.386;9.980;2023-04-01T04:12:27;1.73;;;1.00;;
5428;SDS011;2737;52.386;9.980;2023-04-01T04:14:54;4.07;;;1.90;;
5428;SDS011;2737;52.386;9.980;2023-04-01T04:17:21;8.13;;;3.50;;
5428;SDS011;2737;52.386;9.980;2023-04-01T04:19:48;7.40;;;3.10;;
5428;SDS011;2737;52.386;9.980;2023-04-01T04:22:15;8.20;;;2.73;;
5428;SDS011;2737;52.386;9.980;2023-04-01T04:24:45;5.40;;;2.63;;
5428;SDS011;2737;52.386;9.980;2023-04-01T04:27:12;7.63;;;3.03;;
5428;SDS011;2737;52.386;9.980;2023-04-01T04:29:40;5.40;;;3.10;;
5428;SDS011;2737;52.386;9.980;2023-04-01T04:32:08;4.67;;;1.57;;
5428;SDS011;2737;52.386;9.980;2023-04-01T04:34:35;6.57;;;1.47;;
5428;SDS011;2737;52.386;9.980;2023-04-01T04:37:02;1.33;;;1.23;;
5428;SDS011;2737;52.386;9.980;2023-04-01T04:39:29;1.63;;;1.10;;
5428;SDS011;2737;52.386;9.980;2023-04-01T04:41:58;8.03;;;1.60;;
5428;SDS011;2737;52.386;9.980;2023-04-01T04:44:25;5.33;;;1.17;;
5428;SDS011;2737;52.386;9.980;2023-04-01T04:46:52;3.20;;;1.10;;
5428;SDS011;2737;52.386;9.980;2023-04-01T04:49:19;3.07;;;1.47;;
5428;SDS011;2737;52.386;9.980;2023-04-01T04:51:46;3.13;;;1.20;;
5428;SDS011;2737;52.386;9.980;2023-04-01T04:54:13;2.87;;;1.40;;
5428;SDS011;2737;52.386;9.980;2023-04-01T04:56:40;2.30;;;1.07;;
5428;SDS011;2737;52.386;9.980;2023-04-01T04:59:08;3.47;;;1.33;;
5428;SDS011;2737;52.386;9.980;2023-04-01T05:01:35;2.50;;;1.40;;
5428;SDS011;2737;52.386;9.980;2023-04-01T05:04:02;4.00;;;1.40;;
5428;SDS011;2737;52.386;9.980;2023-04-01T05:06:30;2.93;;;1.23;;
5428;SDS011;2737;52.386;9.980;2023-04-01T05:08:57;3.13;;;1.50;;
5428;SDS011;2737;52.386;9.980;2023-04-01T05:11:24;2.90;;;1.53;;
5428;SDS011;2737;52.386;9.980;2023-04-01T05:13:52;3.77;;;1.40;;
5428;SDS011;2737;52.386;9.980;2023-04-01T05:16:21;3.90;;;1.70;;
5428;SDS011;2737;52.386;9.980;2023-04-01T05:18:48;2.57;;;1.60;;
5428;SDS011;2737;52.386;9.980;2023-04-01T05:21:15;5.17;;;1.27;;
5428;SDS011;2737;52.386;9.980;2023-04-01T05:23:42;5.60;;;1.60;;
5428;SDS011;2737;52.386;9.980;2023-04-01T05:26:10;2.60;;;1.30;;
5428;SDS011;2737;52.386;9.980;2023-04-01T05:28:38;4.17;;;2.40;;
5428;SDS011;2737;52.386;9.980;2023-04-01T05:31:05;4.43;;;1.40;;
5428;SDS011;2737;52.386;9.980;2023-04-01T05:33:34;2.63;;;1.30;;
5428;SDS011;2737;52.386;9.980;2023-04-01T05:36:08;6.83;;;1.57;;
5428;SDS011;2737;52.386;9.980;2023-04-01T05:38:36;4.83;;;1.40;;
5428;SDS011;2737;52.386;9.980;2023-04-01T05:41:03;2.70;;;1.40;;
5428;SDS011;2737;52.386;9.980;2023-04-01T05:43:32;14.13;;;2.40;;
5428;SDS011;2737;52.386;9.980;2023-04-01T05:46:02;5.90;;;1.70;;
5428;SDS011;2737;52.386;9.980;2023-04-01T05:48:29;2.50;;;1.40;;
5428;SDS011;2737;52.386;9.980;2023-04-01T05:50:58;4.47;;;1.80;;
5428;SDS011;2737;52.386;9.980;2023-04-01T05:53:25;2.03;;;1.43;;
5428;SDS011;2737;52.386;9.980;2023-04-01T05:55:52;2.63;;;1.23;;
5428;SDS011;2737;52.386;9.980;2023-04-01T05:58:19;4.50;;;1.33;;
5428;SDS011;2737;52.386;9.980;2023-04-01T06:00:46;1.33;;;1.23;;
5428;SDS011;2737;52.386;9.980;2023-04-01T06:03:13;3.27;;;1.70;;
5428;SDS011;2737;52.386;9.980;2023-04-01T06:05:40;3.03;;;1.50;;
5428;SDS011;2737;52.386;9.980;2023-04-01T06:08:13;1.90;;;1.30;;
5428;SDS011;2737;52.386;9.980;2023-04-01T06:10:45;5.37;;;1.77;;
5428;SDS011;2737;52.386;9.980;2023-04-01T06:13:24;2.57;;;1.80;;
5428;SDS011;2737;52.386;9.980;2023-04-01T06:16:02;4.87;;;1.60;;
5428;SDS011;2737;52.386;9.980;2023-04-01T06:18:48;5.40;;;1.70;;
5428;SDS011;2737;52.386;9.980;2023-04-01T06:21:29;2.80;;;1.40;;
5428;SDS011;2737;52.386;9.980;2023-04-01T06:26:56;2.70;;;1.30;;
5428;SDS011;2737;52.386;9.980;2023-04-01T06:29:42;2.23;;;1.60;;
5428;SDS011;2737;52.386;9.980;2023-04-01T06:35:27;4.73;;;1.93;;
5428;SDS011;2737;52.386;9.980;2023-04-01T06:38:06;2.80;;;1.97;;
5428;SDS011;2737;52.386;9.980;2023-04-01T06:43:46;5.00;;;2.03;;
5428;SDS011;2737;52.386;9.980;2023-04-01T06:46:23;4.10;;;1.90;;
5428;SDS011;2737;52.386;9.980;2023-04-01T06:49:02;3.97;;;1.60;;
5428;SDS011;2737;52.386;9.980;2023-04-01T06:51:45;4.27;;;1.70;;
5428;SDS011;2737;52.386;9.980;2023-04-01T06:54:20;2.73;;;1.80;;
5428;SDS011;2737;52.386;9.980;2023-04-01T06:56:54;5.60;;;1.60;;
5428;SDS011;2737;52.386;9.980;2023-04-01T06:59:26;3.97;;;2.40;;
5428;SDS011;2737;52.386;9.980;2023-04-01T07:01:55;5.00;;;1.60;;
5428;SDS011;2737;52.386;9.980;2023-04-01T07:04:25;6.90;;;1.90;;
5428;SDS011;2737;52.386;9.980;2023-04-01T07:06:57;3.30;;;1.97;;
5428;SDS011;2737;52.386;9.980;2023-04-01T07:09:27;5.23;;;2.43;;
5428;SDS011;2737;52.386;9.980;2023-04-01T07:12:02;2.13;;;1.30;;
5428;SDS011;2737;52.386;9.980;2023-04-01T07:14:39;5.57;;;1.30;;
5428;SDS011;2737;52.386;9.980;2023-04-01T07:17:09;4.43;;;1.40;;
5428;SDS011;2737;52.386;9.980;2023-04-01T07:19:42;4.40;;;1.70;;
5428;SDS011;2737;52.386;9.980;2023-04-01T07:22:15;4.00;;;1.73;;
5428;SDS011;2737;52.386;9.980;2023-04-01T07:24:47;3.97;;;1.30;;
5428;SDS011;2737;52.386;9.980;2023-04-01T07:27:16;3.20;;;1.70;;
5428;SDS011;2737;52.386;9.980;2023-04-01T07:29:43;3.60;;;1.23;;
5428;SDS011;2737;52.386;9.980;2023-04-01T07:32:16;3.83;;;1.80;;
5428;SDS011;2737;52.386;9.980;2023-04-01T07:34:54;6.73;;;2.50;;
5428;SDS011;2737;52.386;9.980;2023-04-01T07:37:34;3.00;;;1.20;;
5428;SDS011;2737;52.386;9.980;2023-04-01T07:40:12;1.00;;;0.80;;
5428;SDS011;2737;52.386;9.980;2023-04-01T07:42:57;4.60;;;1.30;;
5428;SDS011;2737;52.386;9.980;2023-04-01T07:45:41;3.90;;;1.20;;
5428;SDS011;2737;52.386;9.980;2023-04-01T07:48:18;7.97;;;1.40;;
5428;SDS011;2737;52.386;9.980;2023-04-01T07:50:54;2.53;;;1.20;;
5428;SDS011;2737;52.386;9.980;2023-04-01T07:53:30;5.97;;;1.27;;
5428;SDS011;2737;52.386;9.980;2023-04-01T07:56:05;2.37;;;1.30;;
5428;SDS011;2737;52.386;9.980;2023-04-01T07:58:38;3.10;;;1.40;;
5428;SDS011;2737;52.386;9.980;2023-04-01T08:01:17;4.00;;;1.47;;
5428;SDS011;2737;52.386;9.980;2023-04-01T08:03:58;2.43;;;0.90;;
5428;SDS011;2737;52.386;9.980;2023-04-01T08:06:39;4.57;;;1.10;;
5428;SDS011;2737;52.386;9.980;2023-04-01T08:09:14;1.73;;;1.23;;
5428;SDS011;2737;52.386;9.980;2023-04-01T08:11:52;1.80;;;1.00;;
5428;SDS011;2737;52.386;9.980;2023-04-01T08:14:28;4.90;;;1.13;;
5428;SDS011;2737;52.386;9.980;2023-04-01T08:17:04;2.33;;;1.50;;
5428;SDS011;2737;52.386;9.980;2023-04-01T08:19:41;1.40;;;1.03;;
5428;SDS011;2737;52.386;9.980;2023-04-01T08:22:21;4.00;;;1.10;;
5428;SDS011;2737;52.386;9.980;2023-04-01T08:24:52;1.30;;;0.93;;
5428;SDS011;2737;52.386;9.980;2023-04-01T08:27:26;2.03;;;0.80;;
5428;SDS011;2737;52.386;9.980;2023-04-01T08:30:01;3.80;;;1.00;;
5428;SDS011;2737;52.386;9.980;2023-04-01T08:32:30;1.13;;;0.80;;
5428;SDS011;2737;52.386;9.980;2023-04-01T08:35:06;1.37;;;0.80;;
5428;SDS011;2737;52.386;9.980;2023-04-01T08:37:38;2.73;;;0.90;;
5428;SDS011;2737;52.386;9.980;2023-04-01T08:40:14;1.77;;;0.93;;
5428;SDS011;2737;52.386;9.980;2023-04-01T08:43:24;2.77;;;1.00;;
5428;SDS011;2737;52.386;9.980;2023-04-01T08:46:14;1.20;;;0.90;;
5428;SDS011;2737;52.386;9.980;2023-04-01T08:49:04;2.10;;;1.10;;
5428;SDS011;2737;52.386;9.980;2023-04-01T08:51:46;2.80;;;0.70;;
5428;SDS011;2737;52.386;9.980;2023-04-01T08:54:37;1.60;;;0.87;;
5428;SDS011;2737;52.386;9.980;2023-04-01T08:57:32;2.97;;;0.70;;
5428;SDS011;2737;52.386;9.980;2023-04-01T09:00:13;1.07;;;0.63;;
5428;SDS011;2737;52.386;9.980;2023-04-01T09:02:56;5.70;;;0.80;;
5428;SDS011;2737;52.386;9.980;2023-04-01T09:06:00;1.37;;;0.70;;
5428;SDS011;2737;52.386;9.980;2023-04-01T09:08:42;4.50;;;1.10;;
5428;SDS011;2737;52.386;9.980;2023-04-01T09:11:21;3.00;;;0.80;;
5428;SDS011;2737;52.386;9.980;2023-04-01T09:20:09;1.13;;;1.00;;
5428;SDS011;2737;52.386;9.980;2023-04-01T09:22:53;0.70;;;0.60;;
5428;SDS011;2737;52.386;9.980;2023-04-01T09:25:38;3.70;;;1.00;;
5428;SDS011;2737;52.386;9.980;2023-04-01T09:28:18;2.20;;;0.70;;
5428;SDS011;2737;52.386;9.980;2023-04-01T09:31:01;1.17;;;0.90;;
5428;SDS011;2737;52.386;9.980;2023-04-01T09:33:46;2.23;;;0.80;;
5428;SDS011;2737;52.386;9.980;2023-04-01T09:36:46;2.20;;;0.80;;
5428;SDS011;2737;52.386;9.980;2023-04-01T09:39:29;2.57;;;0.83;;
5428;SDS011;2737;52.386;9.980;2023-04-01T09:44:59;1.67;;;0.70;;
5428;SDS011;2737;52.386;9.980;2023-04-01T09:47:37;2.73;;;0.80;;
5428;SDS011;2737;52.386;9.980;2023-04-01T09:50:21;3.80;;;0.87;;
5428;SDS011;2737;52.386;9.980;2023-04-01T09:53:06;2.97;;;0.93;;
5428;SDS011;2737;52.386;9.980;2023-04-01T09:56:08;0.60;;;0.60;;
5428;SDS011;2737;52.386;9.980;2023-04-01T10:07:44;2.70;;;0.80;;
5428;SDS011;2737;52.386;9.980;2023-04-01T10:13:44;4.50;;;0.90;;
5428;SDS011;2737;52.386;9.980;2023-04-01T10:28:34;4.33;;;1.00;;
5428;SDS011;2737;52.386;9.980;2023-04-01T10:37:45;4.73;;;0.97;;
5428;SDS011;2737;52.386;9.980;2023-04-01T10:40:36;1.33;;;0.90;;
5428;SDS011;2737;52.386;9.980;2023-04-01T10:52:29;3.67;;;0.90;;
5428;SDS011;2737;52.386;9.980;2023-04-01T10:55:33;2.83;;;1.00;;
5428;SDS011;2737;52.386;9.980;2023-04-01T10:58:37;9.53;;;1.00;;
5428;SDS011;2737;52.386;9.980;2023-04-01T11:14:38;1.83;;;0.70;;
5428;SDS011;2737;52.386;9.980;2023-04-01T11:17:33;1.67;;;0.60;;
5428;SDS011;2737;52.386;9.980;2023-04-01T11:20:28;1.57;;;0.90;;
5428;SDS011;2737;52.386;9.980;2023-04-01T11:23:14;1.53;;;0.70;;
5428;SDS011;2737;52.386;9.980;2023-04-01T11:26:07;2.03;;;0.70;;
5428;SDS011;2737;52.386;9.980;2023-04-01T11:28:48;2.37;;;0.60;;
5428;SDS011;2737;52.386;9.980;2023-04-01T11:31:33;3.07;;;0.70;;
5428;SDS011;2737;52.386;9.980;2023-04-01T11:34:11;1.03;;;0.80;;
5428;SDS011;2737;52.386;9.980;2023-04-01T11:36:50;1.33;;;0.70;;
5428;SDS011;2737;52.386;9.980;2023-04-01T11:39:27;2.07;;;0.93;;
5428;SDS011;2737;52.386;9.980;2023-04-01T11:42:03;0.90;;;0.70;;
5428;SDS011;2737;52.386;9.980;2023-04-01T11:44:43;2.13;;;0.70;;
5428;SDS011;2737;52.386;9.980;2023-04-01T11:50:22;2.40;;;0.97;;
5428;SDS011;2737;52.386;9.980;2023-04-01T11:53:04;1.80;;;0.73;;
5428;SDS011;2737;52.386;9.980;2023-04-01T11:55:44;2.87;;;0.80;;
5428;SDS011;2737;52.386;9.980;2023-04-01T11:58:41;0.60;;;0.60;;
5428;SDS011;2737;52.386;9.980;2023-04-01T12:01:36;0.97;;;0.60;;
5428;SDS011;2737;52.386;9.980;2023-04-01T12:10:25;1.07;;;0.70;;
5428;SDS011;2737;52.386;9.980;2023-04-01T12:12:58;2.13;;;0.63;;
5428;SDS011;2737;52.386;9.980;2023-04-01T12:15:33;0.87;;;0.77;;
5428;SDS011;2737;52.386;9.980;2023-04-01T12:18:13;3.07;;;0.70;;
5428;SDS011;2737;52.386;9.980;2023-04-01T12:20:46;2.70;;;0.70;;
5428;SDS011;2737;52.386;9.980;2023-04-01T12:23:22;1.00;;;0.63;;
5428;SDS011;2737;52.386;9.980;2023-04-01T12:26:15;3.50;;;1.33;;
5428;SDS011;2737;52.386;9.980;2023-04-01T12:28:57;2.10;;;1.17;;
5428;SDS011;2737;52.386;9.980;2023-04-01T12:31:37;0.53;;;0.53;;
5428;SDS011;2737;52.386;9.980;2023-04-01T12:34:19;0.87;;;0.70;;
5428;SDS011;2737;52.386;9.980;2023-04-01T12:37:26;1.17;;;1.07;;
5428;SDS011;2737;52.386;9.980;2023-04-01T12:40:02;1.17;;;0.90;;
5428;SDS011;2737;52.386;9.980;2023-04-01T12:42:58;1.00;;;0.70;;
5428;SDS011;2737;52.386;9.980;2023-04-01T12:45:35;1.97;;;0.70;;
5428;SDS011;2737;52.386;9.980;2023-04-01T12:48:18;0.60;;;0.60;;
5428;SDS011;2737;52.386;9.980;2023-04-01T12:57:47;1.37;;;0.90;;
5428;SDS011;2737;52.386;9.980;2023-04-01T13:00:35;0.60;;;0.60;;
5428;SDS011;2737;52.386;9.980;2023-04-01T13:03:17;1.63;;;0.73;;
5428;SDS011;2737;52.386;9.980;2023-04-01T13:06:16;1.90;;;0.80;;
5428;SDS011;2737;52.386;9.980;2023-04-01T13:08:52;0.70;;;0.70;;
5428;SDS011;2737;52.386;9.980;2023-04-01T13:11:32;1.23;;;1.10;;
5428;SDS011;2737;52.386;9.980;2023-04-01T13:14:20;1.80;;;0.80;;
5428;SDS011;2737;52.386;9.980;2023-04-01T13:17:01;1.27;;;0.70;;
5428;SDS011;2737;52.386;9.980;2023-04-01T13:19:38;3.50;;;1.00;;
5428;SDS011;2737;52.386;9.980;2023-04-01T13:22:10;1.90;;;0.90;;
5428;SDS011;2737;52.386;9.980;2023-04-01T13:24:48;3.70;;;1.10;;
5428;SDS011;2737;52.386;9.980;2023-04-01T13:27:20;0.80;;;0.70;;
5428;SDS011;2737;52.386;9.980;2023-04-01T13:30:04;2.70;;;1.30;;
5428;SDS011;2737;52.386;9.980;2023-04-01T13:32:46;0.83;;;0.83;;
5428;SDS011;2737;52.386;9.980;2023-04-01T13:35:21;1.00;;;0.80;;
5428;SDS011;2737;52.386;9.980;2023-04-01T13:38:02;0.80;;;0.80;;
5428;SDS011;2737;52.386;9.980;2023-04-01T13:40:39;1.83;;;0.80;;
5428;SDS011;2737;52.386;9.980;2023-04-01T13:43:16;0.80;;;0.80;;
5428;SDS011;2737;52.386;9.980;2023-04-01T13:57:42;4.47;;;4.10;;
5428;SDS011;2737;52.386;9.980;2023-04-01T14:00:23;3.20;;;3.00;;
5428;SDS011;2737;52.386;9.980;2023-04-01T14:05:55;1.90;;;1.43;;
5428;SDS011;2737;52.386;9.980;2023-04-01T14:08:34;2.93;;;2.63;;
5428;SDS011;2737;52.386;9.980;2023-04-01T14:11:13;1.27;;;1.17;;
5428;SDS011;2737;52.386;9.980;2023-04-01T14:13:48;3.00;;;2.00;;
5428;SDS011;2737;52.386;9.980;2023-04-01T14:19:22;1.83;;;1.10;;
5428;SDS011;2737;52.386;9.980;2023-04-01T14:22:00;5.43;;;1.30;;
5428;SDS011;2737;52.386;9.980;2023-04-01T14:24:42;1.30;;;1.10;;
5428;SDS011;2737;52.386;9.980;2023-04-01T14:27:21;1.27;;;1.17;;
5428;SDS011;2737;52.386;9.980;2023-04-01T14:30:17;2.17;;;1.23;;
5428;SDS011;2737;52.386;9.980;2023-04-01T14:32:56;2.60;;;1.50;;
5428;SDS011;2737;52.386;9.980;2023-04-01T14:35:36;3.80;;;2.13;;
5428;SDS011;2737;52.386;9.980;2023-04-01T14:38:28;3.30;;;1.67;;
5428;SDS011;2737;52.386;9.980;2023-04-01T14:41:06;1.50;;;1.40;;
5428;SDS011;2737;52.386;9.980;2023-04-01T14:44:05;2.13;;;1.77;;
5428;SDS011;2737;52.386;9.980;2023-04-01T14:46:52;1.93;;;1.03;;
5428;SDS011;2737;52.386;9.980;2023-04-01T14:49:39;1.20;;;1.10;;
5428;SDS011;2737;52.386;9.980;2023-04-01T14:52:10;1.37;;;1.07;;
5428;SDS011;2737;52.386;9.980;2023-04-01T14:54:42;6.90;;;1.93;;
5428;SDS011;2737;52.386;9.980;2023-04-01T14:57:13;5.90;;;0.90;;
5428;SDS011;2737;52.386;9.980;2023-04-01T14:59:46;3.17;;;1.30;;
5428;SDS011;2737;52.386;9.980;2023-04-01T15:02:33;0.87;;;0.87;;
5428;SDS011;2737;52.386;9.980;2023-04-01T15:05:26;1.03;;;0.93;;
5428;SDS011;2737;52.386;9.980;2023-04-01T15:08:10;1.90;;;1.63;;
5428;SDS011;2737;52.386;9.980;2023-04-01T15:11:05;1.10;;;0.90;;
5428;SDS011;2737;52.386;9.980;2023-04-01T15:14:01;1.03;;;1.00;;
5428;SDS011;2737;52.386;9.980;2023-04-01T15:16:52;1.27;;;1.17;;
5428;SDS011;2737;52.386;9.980;2023-04-01T15:19:31;1.10;;;1.00;;
5428;SDS011;2737;52.386;9.980;2023-04-01T15:22:15;1.00;;;0.90;;
5428;SDS011;2737;52.386;9.980;2023-04-01T15:25:15;1.93;;;1.30;;
5428;SDS011;2737;52.386;9.980;2023-04-01T15:27:55;2.30;;;1.30;;
5428;SDS011;2737;52.386;9.980;2023-04-01T15:30:32;1.10;;;1.00;;
5428;SDS011;2737;52.386;9.980;2023-04-01T15:33:16;9.43;;;1.30;;
5428;SDS011;2737;52.386;9.980;2023-04-01T15:36:01;1.20;;;1.10;;
5428;SDS011;2737;52.386;9.980;2023-04-01T15:38:36;2.30;;;1.33;;
5428;SDS011;2737;52.386;9.980;2023-04-01T15:41:14;1.83;;;1.20;;
5428;SDS011;2737;52.386;9.980;2023-04-01T15:43:44;0.90;;;0.90;;
5428;SDS011;2737;52.386;9.980;2023-04-01T15:46:25;1.13;;;1.00;;
5428;SDS011;2737;52.386;9.980;2023-04-01T15:49:12;1.20;;;1.10;;
5428;SDS011;2737;52.386;9.980;2023-04-01T15:51:58;1.17;;;1.00;;
5428;SDS011;2737;52.386;9.980;2023-04-01T15:57:38;2.43;;;1.90;;
5428;SDS011;2737;52.386;9.980;2023-04-01T16:00:19;1.23;;;1.13;;
5428;SDS011;2737;52.386;9.980;2023-04-01T16:02:52;1.20;;;1.10;;
5428;SDS011;2737;52.386;9.980;2023-04-01T16:05:37;1.27;;;1.17;;
5428;SDS011;2737;52.386;9.980;2023-04-01T16:08:14;1.20;;;1.00;;
5428;SDS011;2737;52.386;9.980;2023-04-01T16:10:58;1.17;;;1.00;;
5428;SDS011;2737;52.386;9.980;2023-04-01T16:13:44;1.63;;;1.53;;
5428;SDS011;2737;52.386;9.980;2023-04-01T16:16:22;0.80;;;0.80;;
5428;SDS011;2737;52.386;9.980;2023-04-01T16:18:59;1.00;;;0.90;;
5428;SDS011;2737;52.386;9.980;2023-04-01T16:21:42;0.97;;;0.90;;
5428;SDS011;2737;52.386;9.980;2023-04-01T16:24:16;2.80;;;2.20;;
5428;SDS011;2737;52.386;9.980;2023-04-01T16:26:50;1.90;;;1.50;;
5428;SDS011;2737;52.386;9.980;2023-04-01T16:29:24;3.13;;;2.00;;
5428;SDS011;2737;52.386;9.980;2023-04-01T16:32:02;1.83;;;1.73;;
5428;SDS011;2737;52.386;9.980;2023-04-01T16:34:57;4.10;;;2.70;;
5428;SDS011;2737;52.386;9.980;2023-04-01T16:37:32;2.70;;;1.20;;
5428;SDS011;2737;52.386;9.980;2023-04-01T16:40:10;2.40;;;2.20;;
5428;SDS011;2737;52.386;9.980;2023-04-01T16:42:44;1.30;;;1.20;;
5428;SDS011;2737;52.386;9.980;2023-04-01T16:45:19;0.97;;;0.90;;
5428;SDS011;2737;52.386;9.980;2023-04-01T16:47:56;2.07;;;1.20;;
5428;SDS011;2737;52.386;9.980;2023-04-01T16:50:39;1.70;;;1.60;;
5428;SDS011;2737;52.386;9.980;2023-04-01T16:53:14;2.03;;;1.23;;
5428;SDS011;2737;52.386;9.980;2023-04-01T16:55:47;2.73;;;1.83;;
5428;SDS011;2737;52.386;9.980;2023-04-01T16:58:18;2.37;;;1.70;;
5428;SDS011;2737;52.386;9.980;2023-04-01T17:00:51;2.43;;;1.90;;
5428;SDS011;2737;52.386;9.980;2023-04-01T17:03:28;1.93;;;1.67;;
5428;SDS011;2737;52.386;9.980;2023-04-01T17:06:02;2.17;;;2.00;;
5428;SDS011;2737;52.386;9.980;2023-04-01T17:08:41;3.40;;;2.10;;
5428;SDS011;2737;52.386;9.980;2023-04-01T17:11:19;2.60;;;1.73;;
5428;SDS011;2737;52.386;9.980;2023-04-01T17:13:52;2.93;;;2.70;;
5428;SDS011;2737;52.386;9.980;2023-04-01T17:19:38;3.37;;;2.30;;
5428;SDS011;2737;52.386;9.980;2023-04-01T17:22:19;1.63;;;1.53;;
5428;SDS011;2737;52.386;9.980;2023-04-01T17:25:00;2.87;;;1.70;;
5428;SDS011;2737;52.386;9.980;2023-04-01T17:27:39;2.73;;;1.70;;
5428;SDS011;2737;52.386;9.980;2023-04-01T17:30:17;1.50;;;1.40;;
5428;SDS011;2737;52.386;9.980;2023-04-01T17:32:56;1.53;;;1.30;;
5428;SDS011;2737;52.386;9.980;2023-04-01T17:35:42;2.10;;;1.57;;
5428;SDS011;2737;52.386;9.980;2023-04-01T17:38:17;3.30;;;1.93;;
5428;SDS011;2737;52.386;9.980;2023-04-01T17:40:54;2.10;;;1.90;;
5428;SDS011;2737;52.386;9.980;2023-04-01T17:43:32;1.27;;;1.17;;
5428;SDS011;2737;52.386;9.980;2023-04-01T17:46:08;1.13;;;1.07;;
5428;SDS011;2737;52.386;9.980;2023-04-01T17:48:49;1.50;;;1.40;;
5428;SDS011;2737;52.386;9.980;2023-04-01T17:51:28;1.03;;;1.00;;
5428;SDS011;2737;52.386;9.980;2023-04-01T17:54:02;3.00;;;1.60;;
5428;SDS011;2737;52.386;9.980;2023-04-01T17:56:44;2.47;;;1.40;;
5428;SDS011;2737;52.386;9.980;2023-04-01T17:59:21;1.37;;;1.27;;
5428;SDS011;2737;52.386;9.980;2023-04-01T18:01:57;2.20;;;1.80;;
5428;SDS011;2737;52.386;9.980;2023-04-01T18:04:37;1.40;;;1.30;;